Decoded Metar for PADM (MARSHALL in AK, USA) (IATA:N/A) | Meteo·Mobile Aviation Weather
aviador You're here:

PADM Decoded Metar

MARSHALL in AK, USA
Report Time2019-07-19 19:02:00
UTC Time2019-07-19 19:20:34
Flight Rules mvfr MVFR
Wind260° at 09 kt
W.Decomp.*RWY 25: 9.0 kt HW 0.5 kt LCW
Visibility8047 m
Phenomena:Light Rain
Mist
Clouds:Broken 015 Hf
Overcast 025 Hf
Expected CloudBase > 800 ft AGL from Temp-Dew spread
Ceiling1,500 ft
Temp13°C (ISA -2)
Dew Point11°C (88% RH)
AAT10.1°C
QNH1020 hPa
Density Alt-171 ft
Elevation102 ft
Report Wrong Elevation
Raw Report
PADM 191902Z AUTO 26009KT 5SM -RA BR BKN015 OVC025 13/11 A3011 RMK
AO2 RAB01 SLP199 P0000 T01280106=

Extra information for PADM:More info

Metar Taf Metar & Taf Last 4 Metars F.Rules Stats Wind Profile Meteogram Temp Stats Airport Information Weather charts Add Link Nearby VenuesMetar ALERT Operation Metar Decoded Social comments

AIRNAV info for PADM